createdAt,value
2022-07-29T00:01:44.009Z,99594.28
2022-07-29T00:04:14.104Z,99596.13
2022-07-29T00:06:44.157Z,99596.25
2022-07-29T00:09:12.651Z,99586.78
2022-07-29T00:11:42.025Z,99583.47
2022-07-29T00:14:10.536Z,99591.34
2022-07-29T00:16:41.515Z,99594.72
2022-07-29T00:19:10.087Z,99592.09
2022-07-29T00:21:39.730Z,99589.50
2022-07-29T00:24:08.487Z,99590.50
2022-07-29T00:26:37.054Z,99589.66
2022-07-29T00:29:33.065Z,99585.44
2022-07-29T00:31:56.605Z,99588.25
2022-07-29T00:34:35.107Z,99581.38
2022-07-29T00:37:03.935Z,99585.81
2022-07-29T00:39:32.767Z,99593.81
2022-07-29T00:42:01.238Z,99584.19
2022-07-29T00:44:29.964Z,99583.44
2022-07-29T00:46:59.856Z,99586.03
2022-07-29T00:49:28.445Z,99587.09
2022-07-29T00:51:56.906Z,99585.50
2022-07-29T00:54:25.355Z,99582.88
2022-07-29T00:56:53.756Z,99585.50
2022-07-29T00:59:22.579Z,99585.50
2022-07-29T01:01:51.092Z,99589.94
2022-07-29T01:04:21.144Z,99589.28
2022-07-29T01:06:49.851Z,99585.81
2022-07-29T01:09:18.445Z,99588.53
2022-07-29T01:12:05.967Z,99584.25
2022-07-29T01:14:37.861Z,99585.94
2022-07-29T01:17:10.267Z,99581.66
2022-07-29T01:19:49.815Z,99579.19
2022-07-29T01:22:29.126Z,99577.50
2022-07-29T01:25:12.569Z,99578.28
2022-07-29T01:27:44.527Z,99573.88
2022-07-29T01:30:16.198Z,99577.25
2022-07-29T01:32:50.249Z,99573.72
2022-07-29T01:35:22.036Z,99573.72
2022-07-29T01:37:53.359Z,99571.00
2022-07-29T01:40:23.418Z,99576.97
2022-07-29T01:42:54.362Z,99575.97
2022-07-29T01:45:28.341Z,99581.91
2022-07-29T01:48:07.528Z,99582.72
2022-07-29T01:50:37.678Z,99576.50
2022-07-29T01:53:07.289Z,99572.75
2022-07-29T01:55:39.182Z,99571.63
2022-07-29T01:58:09.329Z,99577.84
2022-07-29T02:00:40.113Z,99577.00
2022-07-29T02:03:13.729Z,99571.00
2022-07-29T02:05:43.980Z,99568.41
2022-07-29T02:08:13.712Z,99570.03
2022-07-29T02:10:43.439Z,99569.81
2022-07-29T02:13:13.782Z,99558.50
2022-07-29T02:15:44.361Z,99554.22
2022-07-29T02:18:15.841Z,99561.84
2022-07-29T02:20:47.160Z,99556.66
2022-07-29T02:23:17.078Z,99556.63
2022-07-29T02:25:45.830Z,99560.06
2022-07-29T02:28:15.451Z,99565.09
2022-07-29T02:30:45.871Z,99558.22
2022-07-29T02:33:15.759Z,99560.75
2022-07-29T02:35:46.066Z,99558.22
2022-07-29T02:38:25.803Z,99568.75
2022-07-29T02:40:56.006Z,99559.44
2022-07-29T02:43:25.001Z,99569.09
2022-07-29T02:45:56.131Z,99568.19
2022-07-29T02:48:30.383Z,99565.66
2022-07-29T02:51:04.025Z,99572.66
2022-07-29T02:53:35.607Z,99559.78
2022-07-29T02:56:06.775Z,99566.75
2022-07-29T02:58:37.011Z,99562.38
2022-07-29T03:01:10.691Z,99567.72
2022-07-29T03:03:40.503Z,99560.84
2022-07-29T03:06:09.806Z,99567.09
2022-07-29T03:09:00.445Z,99566.31
2022-07-29T03:11:44.300Z,99565.41
2022-07-29T03:14:18.561Z,99562.97
2022-07-29T03:16:49.245Z,99565.47
2022-07-29T03:19:19.066Z,99569.91
2022-07-29T03:21:47.584Z,99575.97
2022-07-29T03:24:28.325Z,99568.28
2022-07-29T03:26:57.302Z,99561.69
2022-07-29T03:29:33.109Z,99559.97
2022-07-29T03:32:08.352Z,99563.50
2022-07-29T03:34:38.726Z,99567.00
2022-07-29T03:37:08.376Z,99571.22
2022-07-29T03:39:41.901Z,99565.91
2022-07-29T03:42:12.847Z,99565.69
2022-07-29T03:44:43.554Z,99565.56
2022-07-29T03:47:16.129Z,99564.72
2022-07-29T03:49:44.762Z,99568.16
2022-07-29T03:52:13.224Z,99564.50
2022-07-29T03:54:43.115Z,99564.50
2022-07-29T03:57:13.185Z,99568.84
2022-07-29T03:59:42.594Z,99566.03
2022-07-29T04:02:14.663Z,99572.94
2022-07-29T04:04:45.702Z,99577.13
2022-07-29T04:07:14.566Z,99575.34
2022-07-29T04:09:43.425Z,99576.19
2022-07-29T04:12:12.215Z,99576.03
2022-07-29T04:14:40.886Z,99572.53
2022-07-29T04:17:09.346Z,99576.63
2022-07-29T04:19:38.170Z,99569.50
2022-07-29T04:22:08.382Z,99573.50
2022-07-29T04:24:37.017Z,99571.69
2022-07-29T04:27:05.705Z,99566.22
2022-07-29T04:29:34.525Z,99570.22
2022-07-29T04:32:02.924Z,99567.31
2022-07-29T04:34:31.944Z,99566.91
2022-07-29T04:37:00.946Z,99560.50
2022-07-29T04:39:30.903Z,99557.59
2022-07-29T04:41:59.494Z,99557.47
2022-07-29T04:44:29.404Z,99560.59
2022-07-29T04:46:58.653Z,99559.38
2022-07-29T04:49:27.247Z,99554.63
2022-07-29T04:51:56.206Z,99564.50
2022-07-29T04:54:25.659Z,99560.59
2022-07-29T04:56:57.264Z,99566.72
2022-07-29T04:59:26.592Z,99567.78
2022-07-29T05:01:55.153Z,99558.88
2022-07-29T05:04:24.280Z,99557.72
2022-07-29T05:06:52.762Z,99563.34
2022-07-29T05:09:21.546Z,99563.94
2022-07-29T05:11:50.121Z,99561.03
2022-07-29T05:14:20.835Z,99559.84
2022-07-29T05:16:52.252Z,99553.00
2022-07-29T05:19:20.750Z,99547.13
2022-07-29T05:21:49.534Z,99552.53
2022-07-29T05:24:19.396Z,99553.63
2022-07-29T05:26:48.683Z,99555.75
2022-07-29T05:29:43.361Z,99551.72
2022-07-29T05:32:08.114Z,99552.72
2022-07-29T05:34:37.364Z,99553.13
2022-07-29T05:37:19.145Z,99556.81
2022-07-29T05:39:50.650Z,99552.69
2022-07-29T05:42:26.846Z,99552.00
2022-07-29T05:44:56.581Z,99553.97
2022-07-29T05:47:27.032Z,99556.13
2022-07-29T05:49:55.641Z,99552.97
2022-07-29T05:52:24.153Z,99556.72
2022-07-29T05:54:52.919Z,99552.66
2022-07-29T05:57:22.847Z,99554.13
2022-07-29T05:59:52.141Z,99551.06
2022-07-29T06:02:20.781Z,99551.22
2022-07-29T06:04:51.867Z,99550.66
2022-07-29T06:07:20.352Z,99555.28
2022-07-29T06:09:48.825Z,99545.78
2022-07-29T06:12:17.222Z,99548.56
2022-07-29T06:14:45.590Z,99557.88
2022-07-29T06:17:14.043Z,99557.50
2022-07-29T06:19:43.114Z,99553.97
2022-07-29T06:22:13.873Z,99558.59
2022-07-29T06:24:45.205Z,99557.69
2022-07-29T06:27:13.913Z,99559.41
2022-07-29T06:29:42.923Z,99560.41
2022-07-29T06:32:11.513Z,99566.22
2022-07-29T06:34:40.153Z,99562.78
2022-07-29T06:37:15.715Z,99565.75
2022-07-29T06:39:44.555Z,99573.41
2022-07-29T06:42:12.922Z,99571.94
2022-07-29T06:44:43.061Z,99568.16
2022-07-29T06:47:11.442Z,99571.31
2022-07-29T06:49:39.995Z,99562.81
2022-07-29T06:52:08.403Z,99573.41
2022-07-29T06:54:40.083Z,99571.84
2022-07-29T06:57:08.582Z,99567.44
2022-07-29T06:59:36.984Z,99570.59
2022-07-29T07:02:05.472Z,99566.41
2022-07-29T07:04:34.602Z,99557.56
2022-07-29T07:07:03.976Z,99556.28
2022-07-29T07:09:40.532Z,99561.06
2022-07-29T07:12:11.393Z,99558.28
2022-07-29T07:14:41.037Z,99560.25
2022-07-29T07:17:09.768Z,99560.09
2022-07-29T07:19:38.402Z,99553.72
2022-07-29T07:22:06.856Z,99550.34
2022-07-29T07:24:35.361Z,99553.81
2022-07-29T07:27:04.226Z,99558.75
2022-07-29T07:29:34.466Z,99553.06
2022-07-29T07:32:03.168Z,99553.78
2022-07-29T07:34:32.536Z,99552.84
2022-07-29T07:37:00.964Z,99560.53
2022-07-29T07:39:29.454Z,99554.69
2022-07-29T07:41:57.873Z,99545.66
2022-07-29T07:44:26.665Z,99551.50
2022-07-29T07:46:56.526Z,99551.06
2022-07-29T07:49:28.835Z,99548.91
2022-07-29T07:51:57.522Z,99545.53
2022-07-29T07:54:26.806Z,99535.25
2022-07-29T07:56:58.243Z,99539.53
2022-07-29T07:59:26.725Z,99538.88
2022-07-29T08:01:56.919Z,99543.72
2022-07-29T08:04:28.730Z,99540.47
2022-07-29T08:06:58.393Z,99534.81
2022-07-29T08:09:30.174Z,99536.09
2022-07-29T08:12:00.648Z,99543.94
2022-07-29T08:14:29.142Z,99535.72
2022-07-29T08:17:00.161Z,99536.63
2022-07-29T08:19:29.495Z,99536.56
2022-07-29T08:21:57.983Z,99536.97
2022-07-29T08:24:36.394Z,99535.25
2022-07-29T08:27:12.923Z,99530.84
2022-07-29T08:29:53.554Z,99532.00
2022-07-29T08:32:50.958Z,99532.94
2022-07-29T08:35:12.013Z,99536.53
2022-07-29T08:37:40.471Z,99533.78
2022-07-29T08:40:09.291Z,99533.03
2022-07-29T08:42:38.246Z,99528.59
2022-07-29T08:45:07.506Z,99526.84
2022-07-29T08:47:40.978Z,99525.13
2022-07-29T08:50:09.934Z,99528.59
2022-07-29T08:52:39.519Z,99525.56
2022-07-29T08:55:08.710Z,99527.34
2022-07-29T08:57:37.687Z,99519.03
2022-07-29T09:00:11.463Z,99525.13
2022-07-29T09:02:47.863Z,99517.16
2022-07-29T09:05:22.590Z,99527.06
2022-07-29T09:07:51.282Z,99519.69
2022-07-29T09:10:19.714Z,99518.03
2022-07-29T09:12:48.412Z,99515.28
2022-07-29T09:15:16.783Z,99512.84
2022-07-29T09:17:48.345Z,99515.34
2022-07-29T09:20:18.298Z,99516.19
2022-07-29T09:22:50.257Z,99512.28
2022-07-29T09:25:34.919Z,99513.69
2022-07-29T09:28:10.210Z,99507.84
2022-07-29T09:30:39.597Z,99514.81
2022-07-29T09:33:09.647Z,99508.53
2022-07-29T09:35:37.999Z,99507.84
2022-07-29T09:38:13.364Z,99502.16
2022-07-29T09:40:42.308Z,99504.78
2022-07-29T09:43:14.387Z,99503.13
2022-07-29T09:45:43.446Z,99505.34
2022-07-29T09:48:20.335Z,99499.81
2022-07-29T09:50:50.787Z,99498.13
2022-07-29T09:53:31.157Z,99485.88
2022-07-29T09:55:59.744Z,99487.56
2022-07-29T09:58:28.362Z,99483.66
2022-07-29T10:00:58.943Z,99480.59
2022-07-29T10:03:29.107Z,99477.41
2022-07-29T10:06:07.905Z,99477.81
2022-07-29T10:08:36.869Z,99471.41
2022-07-29T10:11:13.577Z,99482.50
2022-07-29T10:13:43.404Z,99473.72
2022-07-29T10:16:12.197Z,99471.06
2022-07-29T10:18:45.945Z,99472.97
2022-07-29T10:21:34.791Z,99472.94
2022-07-29T10:24:03.565Z,99470.16
2022-07-29T10:26:32.670Z,99456.19
2022-07-29T10:29:01.066Z,99463.41
2022-07-29T10:31:32.169Z,99451.06
2022-07-29T10:34:07.615Z,99453.41
2022-07-29T10:36:43.698Z,99457.34
2022-07-29T10:39:22.236Z,99450.94
2022-07-29T10:42:02.052Z,99450.88
2022-07-29T10:44:32.738Z,99446.81
2022-07-29T10:47:01.777Z,99444.75
2022-07-29T10:49:31.925Z,99442.38
2022-07-29T10:52:05.788Z,99446.84
2022-07-29T10:54:43.756Z,99444.00
2022-07-29T10:57:25.979Z,99439.16
2022-07-29T11:00:22.497Z,99432.34
2022-07-29T11:02:54.482Z,99440.47
2022-07-29T11:05:32.028Z,99435.88
2022-07-29T11:08:20.076Z,99438.59
2022-07-29T11:10:49.970Z,99446.91
2022-07-29T11:13:29.178Z,99438.31
2022-07-29T11:16:06.961Z,99427.50
2022-07-29T11:18:37.111Z,99429.72
2022-07-29T11:21:07.947Z,99433.63
2022-07-29T11:23:39.859Z,99424.63
2022-07-29T11:29:19.138Z,99422.09
2022-07-29T11:31:49.714Z,99418.84
2022-07-29T11:34:18.821Z,99409.31
2022-07-29T11:37:00.080Z,99417.03
2022-07-29T11:39:36.623Z,99418.00
2022-07-29T11:42:32.094Z,99415.16
2022-07-29T11:45:08.433Z,99417.09
2022-07-29T11:47:53.698Z,99409.81
2022-07-29T11:50:37.000Z,99408.31
2022-07-29T11:53:12.482Z,99410.34
2022-07-29T11:55:50.966Z,99405.22
2022-07-29T11:58:25.020Z,99409.81
2022-07-29T12:00:55.716Z,99418.63
2022-07-29T12:06:17.983Z,99399.47
2022-07-29T12:08:47.515Z,99397.50
2022-07-29T12:11:23.531Z,99388.13
2022-07-29T12:13:53.121Z,99390.03
2022-07-29T12:16:25.584Z,99383.19
2022-07-29T12:18:59.616Z,99387.56
2022-07-29T12:21:28.911Z,99379.41
2022-07-29T12:24:04.797Z,99377.91
2022-07-29T12:26:40.551Z,99368.97
2022-07-29T12:29:15.442Z,99365.31
2022-07-29T12:31:49.036Z,99370.28
2022-07-29T12:34:17.998Z,99359.47
